Time;durP1;ratioP1;P1;durP2;ratioP2;P2;SDS_P1;SDS_P2;PMS_P1;PMS_P2;Temp;Humidity;BMP_temperature;BMP_pressure;BME280_temperature;BME280_humidity;BME280_pressure;Samples;Min_cycle;Max_cycle;Signal;HPM_P1;HPM_P2
2022/05/13 00:01:19;;;;;;;4.88;1.25;;;;;;;7.05;85.10;98928.25;5094903;28;20122;-81
2022/05/13 00:03:45;;;;;;;1.98;0.80;;;;;;;7.03;85.24;98916.81;5094980;28;20043;-81
2022/05/13 00:06:10;;;;;;;2.67;0.95;;;;;;;7.05;84.56;98928.25;5095925;28;20124;-81
2022/05/13 00:08:36;;;;;;;2.35;1.08;;;;;;;7.06;84.87;98922.47;5102514;28;20040;-81
2022/05/13 00:11:03;;;;;;;1.30;1.02;;;;;;;7.05;85.33;98929.06;5093511;28;20048;-81
2022/05/13 00:13:29;;;;;;;2.97;1.20;;;;;;;7.04;85.19;98921.16;5101227;28;20529;-81
2022/05/13 00:15:55;;;;;;;6.70;1.38;;;;;;;7.08;84.83;98927.63;5106889;28;20035;-81
2022/05/13 00:18:21;;;;;;;2.45;1.30;;;;;;;7.21;85.06;98935.03;5112267;28;20040;-80
2022/05/13 00:20:47;;;;;;;4.30;1.55;;;;;;;7.26;85.63;98933.03;5101061;28;20458;-81
2022/05/13 00:23:12;;;;;;;2.03;1.13;;;;;;;7.28;85.39;98934.63;5113464;28;20039;-81
2022/05/13 00:25:39;;;;;;;3.58;1.30;;;;;;;7.20;85.30;98934.22;5114457;28;20035;-81
2022/05/13 00:28:06;;;;;;;4.47;1.30;;;;;;;7.21;85.15;98924.94;5112937;28;20059;-82
2022/05/13 00:30:37;;;;;;;1.95;1.30;;;;;;;7.24;84.62;98937.16;5096828;28;20039;-81
2022/05/13 00:33:03;;;;;;;4.05;1.15;;;;;;;7.22;85.09;98929.28;5093063;28;20036;-81
2022/05/13 00:35:28;;;;;;;3.35;1.40;;;;;;;7.19;85.53;98929.88;5093820;28;20535;-81
2022/05/13 00:37:54;;;;;;;1.00;0.77;;;;;;;7.25;85.33;98934.13;5093953;28;20032;-81
2022/05/13 00:40:21;;;;;;;4.20;1.10;;;;;;;7.28;85.04;98940.91;5093945;28;20051;-81
2022/05/13 00:42:48;;;;;;;1.77;0.95;;;;;;;7.36;85.00;98937.50;5096243;28;20036;-81
2022/05/13 00:45:14;;;;;;;5.32;1.30;;;;;;;7.37;84.84;98944.56;5096837;28;20042;-81
2022/05/13 00:47:41;;;;;;;1.45;1.15;;;;;;;7.41;85.00;98942.03;5111511;28;20067;-80
2022/05/13 00:50:07;;;;;;;1.35;1.20;;;;;;;7.52;85.13;98943.47;5100640;28;20048;-80
2022/05/13 00:52:33;;;;;;;1.40;1.30;;;;;;;7.52;85.07;98947.00;5108265;28;20448;-80
2022/05/13 00:55:03;;;;;;;2.80;1.30;;;;;;;7.44;85.12;98957.81;5114140;28;20089;-80
2022/05/13 00:57:30;;;;;;;3.80;1.10;;;;;;;7.41;84.73;98950.22;5110965;28;20063;-82
2022/05/13 00:59:56;;;;;;;4.10;1.40;;;;;;;7.50;84.72;98962.06;5113631;28;20059;-82
2022/05/13 01:02:22;;;;;;;2.33;1.30;;;;;;;7.46;84.92;98956.41;5100630;28;20036;-81
2022/05/13 01:04:48;;;;;;;3.35;1.23;;;;;;;7.41;84.79;98948.31;5092567;28;20051;-82
2022/05/13 01:07:18;;;;;;;2.55;0.95;;;;;;;7.44;84.70;98949.63;5099799;28;20060;-82
2022/05/13 01:09:49;;;;;;;3.90;1.25;;;;;;;7.38;84.90;98948.91;5097647;28;20081;-82
2022/05/13 01:12:18;;;;;;;1.75;1.20;;;;;;;7.35;85.16;98946.78;5093849;28;20036;-82
2022/05/13 01:14:47;;;;;;;1.42;1.10;;;;;;;7.36;85.15;98953.06;5092598;28;20657;-82
2022/05/13 01:20:30;;;;;;;4.35;0.93;;;;;;;7.40;84.88;98949.41;5112302;28;20122;-82
2022/05/13 01:23:00;;;;;;;3.47;1.20;;;;;;;7.48;84.62;98940.53;5092771;28;20495;-82
2022/05/13 01:25:28;;;;;;;3.80;1.30;;;;;;;7.44;84.79;98939.50;5092971;28;20032;-82
2022/05/13 01:27:56;;;;;;;1.25;0.90;;;;;;;7.42;84.62;98939.00;5109564;28;20118;-82
2022/05/13 01:30:28;;;;;;;2.67;1.17;;;;;;;7.45;84.66;98941.13;5108782;28;20043;-82
2022/05/13 01:32:54;;;;;;;1.73;1.20;;;;;;;7.48;85.13;98937.81;5101699;28;20032;-82
2022/05/13 01:35:20;;;;;;;3.92;1.20;;;;;;;7.47;84.98;98949.03;5096276;28;20088;-82
2022/05/13 01:37:46;;;;;;;3.10;1.13;;;;;;;7.46;84.33;98941.94;5111906;28;20049;-82
2022/05/13 01:40:12;;;;;;;3.47;1.25;;;;;;;7.42;85.09;98949.91;5111266;28;20035;-82
2022/05/13 01:42:38;;;;;;;1.67;1.25;;;;;;;7.39;84.74;98950.53;5095404;28;20043;-80
2022/05/13 01:45:07;;;;;;;1.40;0.98;;;;;;;7.39;84.69;98950.53;5092632;28;20414;-81
2022/05/13 01:47:33;;;;;;;4.15;0.98;;;;;;;7.43;84.57;98950.72;5105715;28;20050;-81
2022/05/13 01:49:58;;;;;;;1.65;0.90;;;;;;;7.50;85.03;98951.97;5112969;28;20082;-81
2022/05/13 01:52:24;;;;;;;4.90;1.70;;;;;;;7.47;84.68;98949.84;5093895;28;20118;-80
2022/05/13 01:54:49;;;;;;;2.00;1.02;;;;;;;7.43;84.73;98946.06;5109295;28;20393;-81
2022/05/13 01:57:15;;;;;;;3.50;1.15;;;;;;;7.33;85.44;98940.84;5098864;28;20036;-81
2022/05/13 01:59:40;;;;;;;4.35;1.15;;;;;;;7.38;84.86;98942.66;5105749;28;20525;-81
2022/05/13 02:02:06;;;;;;;4.20;1.33;;;;;;;7.44;84.90;98936.78;5093355;28;20043;-81
2022/05/13 02:04:32;;;;;;;1.95;1.00;;;;;;;7.55;85.22;98942.88;5099767;28;20465;-81
2022/05/13 02:06:58;;;;;;;3.45;1.30;;;;;;;7.48;85.44;98948.72;5094672;28;20043;-81
2022/05/13 02:09:23;;;;;;;1.92;1.10;;;;;;;7.51;85.27;98950.03;5111999;28;20036;-81
2022/05/13 02:11:49;;;;;;;1.58;1.00;;;;;;;7.49;84.78;98944.09;5104062;28;20059;-81
2022/05/13 02:14:16;;;;;;;1.10;1.00;;;;;;;7.45;85.21;98954.78;5090951;28;20035;-81
2022/05/13 02:16:42;;;;;;;2.75;0.88;;;;;;;7.56;84.91;98956.22;5098526;28;20035;-81
2022/05/13 02:19:08;;;;;;;1.67;1.10;;;;;;;7.63;85.19;98944.88;5092212;28;20039;-81
2022/05/13 02:21:35;;;;;;;1.25;1.10;;;;;;;7.55;84.92;98949.13;5095783;28;20081;-81
2022/05/13 02:24:01;;;;;;;1.38;1.00;;;;;;;7.48;84.77;98956.91;5090410;28;20044;-82
2022/05/13 02:26:27;;;;;;;1.58;0.80;;;;;;;7.42;84.62;98951.84;5099677;28;20524;-81
2022/05/13 02:28:52;;;;;;;4.60;1.10;;;;;;;7.42;84.96;98954.56;5109559;28;20035;-80
2022/05/13 02:31:18;;;;;;;3.03;1.10;;;;;;;7.43;85.14;98961.66;5103072;28;20035;-81
2022/05/13 02:33:44;;;;;;;4.40;1.30;;;;;;;7.47;84.95;98971.69;5110393;28;20027;-82
2022/05/13 02:36:11;;;;;;;3.25;1.38;;;;;;;7.44;85.16;98953.16;5112311;28;20042;-82
2022/05/13 02:38:37;;;;;;;1.08;0.90;;;;;;;7.36;85.29;98956.59;5094975;28;20502;-81
2022/05/13 02:41:12;;;;;;;0.93;0.80;;;;;;;7.41;85.21;98958.41;5085961;28;20073;-81
2022/05/13 02:43:46;;;;;;;1.58;1.20;;;;;;;7.52;85.25;98955.19;5111768;28;20043;-81
2022/05/13 02:46:18;;;;;;;1.10;0.80;;;;;;;7.59;85.37;98960.25;5090144;28;20407;-81
2022/05/13 02:48:44;;;;;;;3.13;1.35;;;;;;;7.71;85.23;98965.22;5093109;28;20146;-81
2022/05/13 02:51:10;;;;;;;1.85;0.70;;;;;;;7.63;85.08;98968.63;5091728;28;20565;-80
2022/05/13 02:53:35;;;;;;;1.75;1.05;;;;;;;7.57;85.11;98963.28;5101165;28;20127;-80
2022/05/13 02:56:01;;;;;;;1.98;0.90;;;;;;;7.55;85.29;98967.44;5098165;28;20031;-80
2022/05/13 02:58:27;;;;;;;1.35;0.82;;;;;;;7.66;85.26;98965.31;5095488;28;20046;-81
2022/05/13 03:00:53;;;;;;;1.92;1.50;;;;;;;7.79;84.85;98975.41;5097902;28;20075;-81
2022/05/13 03:03:19;;;;;;;1.00;0.90;;;;;;;7.81;84.38;98968.56;5110220;28;20042;-81
2022/05/13 03:05:44;;;;;;;1.75;0.70;;;;;;;7.83;84.99;98960.88;5107449;28;20035;-81
2022/05/13 03:08:10;;;;;;;2.05;1.05;;;;;;;7.87;84.58;98955.59;5097076;28;20040;-81
2022/05/13 03:10:37;;;;;;;0.77;0.70;;;;;;;7.87;84.32;98963.81;5076976;28;20081;-81
2022/05/13 03:13:05;;;;;;;1.00;0.65;;;;;;;7.89;84.17;98960.75;5098115;28;20130;-81
2022/05/13 03:15:31;;;;;;;1.33;0.70;;;;;;;7.86;83.82;98965.72;5078288;28;20042;-81
2022/05/13 03:17:57;;;;;;;3.33;0.95;;;;;;;7.83;84.31;98971.81;5089807;28;20043;-81
2022/05/13 03:20:23;;;;;;;2.40;0.80;;;;;;;7.84;84.69;98969.88;5073220;28;20105;-81
2022/05/13 03:22:51;;;;;;;1.30;0.82;;;;;;;7.93;84.02;98972.69;5091631;28;20055;-81
2022/05/13 03:25:17;;;;;;;2.38;1.10;;;;;;;7.95;84.27;98962.25;5093405;28;20040;-81
2022/05/13 03:27:43;;;;;;;2.28;1.00;;;;;;;7.83;83.88;98962.78;5093270;28;20036;-81
2022/05/13 03:30:11;;;;;;;1.15;1.00;;;;;;;7.73;83.99;98963.78;5112183;27;20597;-81
2022/05/13 03:32:37;;;;;;;1.27;1.08;;;;;;;7.68;84.23;98966.63;5107240;28;20047;-81
2022/05/13 03:35:07;;;;;;;2.65;0.82;;;;;;;7.67;84.50;98966.94;5108267;28;20047;-82
2022/05/13 03:37:33;;;;;;;2.47;0.80;;;;;;;7.80;84.37;98960.66;5098342;28;20028;-81
2022/05/13 03:39:59;;;;;;;4.60;0.93;;;;;;;7.88;83.88;98968.16;5093418;28;20043;-81
2022/05/13 03:42:25;;;;;;;1.67;1.13;;;;;;;7.86;83.76;98979.38;5109662;28;20046;-81
2022/05/13 03:44:51;;;;;;;2.08;1.10;;;;;;;7.76;84.55;98976.03;5103468;28;20032;-82
2022/05/13 03:47:17;;;;;;;3.70;1.20;;;;;;;7.75;84.40;98977.94;5101719;28;20047;-83
2022/05/13 03:49:43;;;;;;;1.65;1.10;;;;;;;7.74;84.09;98990.00;5106036;28;20453;-83
2022/05/13 03:52:09;;;;;;;3.20;1.00;;;;;;;7.68;84.62;98991.22;5101505;28;20093;-83
2022/05/13 03:54:35;;;;;;;1.25;0.88;;;;;;;7.71;84.48;98985.13;5098429;28;20031;-83
2022/05/13 03:57:24;;;;;;;2.28;1.40;;;;;;;7.74;84.81;98975.53;5107927;28;20066;-81
2022/05/13 03:59:49;;;;;;;2.25;0.90;;;;;;;7.68;84.03;98980.28;5104879;28;20106;-81
2022/05/13 04:02:15;;;;;;;0.93;0.82;;;;;;;7.74;84.07;98983.72;5105564;28;20040;-82
2022/05/13 04:10:09;;;;;;;1.10;1.00;;;;;;;8.00;84.17;98981.31;5091887;28;20039;-81
2022/05/13 04:18:11;;;;;;;1.65;1.20;;;;;;;8.16;83.79;98988.06;5066338;28;20089;-81
2022/05/13 04:20:37;;;;;;;1.25;1.05;;;;;;;8.08;83.51;98988.78;5093538;28;20451;-82
2022/05/13 04:23:03;;;;;;;2.35;0.90;;;;;;;7.98;82.92;98989.78;5090533;28;20143;-81
2022/05/13 04:25:28;;;;;;;0.90;0.70;;;;;;;7.95;84.13;98984.91;5093117;28;20498;-81
2022/05/13 04:27:54;;;;;;;1.52;1.08;;;;;;;7.99;83.04;98990.63;5101223;28;20092;-81
2022/05/13 04:30:20;;;;;;;1.35;0.93;;;;;;;7.96;83.51;98986.53;5105944;28;20092;-81
2022/05/13 04:32:45;;;;;;;1.27;0.98;;;;;;;7.99;83.21;98999.63;5099880;28;20071;-81
2022/05/13 04:35:11;;;;;;;2.45;0.90;;;;;;;7.94;83.85;98994.22;5105413;28;20480;-83
2022/05/13 04:37:38;;;;;;;1.35;0.73;;;;;;;7.94;83.92;99005.16;5102284;28;20111;-82
2022/05/13 04:40:05;;;;;;;1.63;1.00;;;;;;;7.90;84.07;99000.63;5109521;27;20088;-80
2022/05/13 04:45:16;;;;;;;1.67;1.00;;;;;;;7.91;83.80;99003.03;5107107;28;20042;-80
2022/05/13 04:50:26;;;;;;;1.85;0.88;;;;;;;7.91;83.95;99008.50;5098778;27;20081;-79
2022/05/13 04:52:51;;;;;;;1.67;1.05;;;;;;;7.97;83.98;99003.75;5094878;28;20089;-79
2022/05/13 04:55:17;;;;;;;1.05;0.73;;;;;;;8.02;84.08;99007.19;5095817;28;20520;-77
2022/05/13 04:57:43;;;;;;;1.30;0.90;;;;;;;8.15;83.79;99000.88;5099131;27;20047;-79
2022/05/13 05:00:09;;;;;;;1.35;1.23;;;;;;;8.25;83.58;99005.34;5105213;27;20047;-81
2022/05/13 05:02:34;;;;;;;2.72;1.35;;;;;;;8.32;83.33;99018.59;5100988;28;20035;-80
2022/05/13 05:05:00;;;;;;;1.83;0.88;;;;;;;8.29;83.54;99011.00;5096230;28;20047;-78
2022/05/13 05:07:26;;;;;;;1.23;0.68;;;;;;;8.28;83.51;99017.59;5096860;28;20106;-79
2022/05/13 05:09:52;;;;;;;0.98;0.90;;;;;;;8.31;83.64;99022.44;5092534;28;20504;-78
2022/05/13 05:12:17;;;;;;;1.55;1.02;;;;;;;8.29;82.93;99027.41;5097646;28;20036;-78
2022/05/13 05:14:44;;;;;;;0.93;0.93;;;;;;;8.26;83.19;99028.81;5108005;28;20405;-82
2022/05/13 05:17:09;;;;;;;1.10;1.00;;;;;;;8.25;83.60;99026.41;5096965;28;20036;-77
2022/05/13 05:19:35;;;;;;;1.83;1.02;;;;;;;8.25;82.95;99029.13;5098778;28;20028;-80
2022/05/13 05:22:01;;;;;;;1.10;0.73;;;;;;;8.24;82.70;99036.53;5087765;28;20417;-80
2022/05/13 05:24:26;;;;;;;1.52;0.80;;;;;;;8.27;83.64;99030.44;5101398;28;20035;-80
2022/05/13 05:26:52;;;;;;;1.42;1.20;;;;;;;8.28;83.36;99036.72;5098475;28;20092;-80
2022/05/13 05:29:17;;;;;;;1.77;0.90;;;;;;;8.30;83.71;99039.94;5102662;28;20570;-80
2022/05/13 05:31:45;;;;;;;1.40;1.02;;;;;;;8.24;83.54;99043.91;5096277;28;20093;-81
2022/05/13 05:34:11;;;;;;;2.90;1.10;;;;;;;8.33;83.31;99051.09;5104589;28;20035;-81
2022/05/13 05:36:37;;;;;;;1.63;0.80;;;;;;;8.52;82.79;99044.72;5101011;28;20159;-80
2022/05/13 05:39:03;;;;;;;1.33;1.00;;;;;;;8.57;83.01;99056.34;5104147;28;20100;-81
2022/05/13 05:41:28;;;;;;;3.28;1.20;;;;;;;8.61;82.84;99054.63;5093196;28;20402;-82
2022/05/13 05:43:54;;;;;;;1.10;0.95;;;;;;;8.56;83.02;99057.47;5099123;28;20035;-81
2022/05/13 05:46:20;;;;;;;1.88;1.20;;;;;;;8.50;82.94;99055.94;5093535;28;20036;-82
2022/05/13 05:48:45;;;;;;;1.67;1.10;;;;;;;8.45;83.16;99059.59;5105822;28;20081;-81
2022/05/13 05:51:11;;;;;;;1.20;1.10;;;;;;;8.51;82.38;99064.97;5105252;28;20039;-82
2022/05/13 05:59:09;;;;;;;0.80;0.80;;;;;;;8.70;82.28;99074.66;5091154;28;20040;-81
2022/05/13 06:01:35;;;;;;;1.83;1.10;;;;;;;8.69;82.39;99073.06;5097921;28;20047;-81
2022/05/13 06:04:01;;;;;;;1.52;1.20;;;;;;;8.72;81.96;99068.88;5101008;28;20122;-81
2022/05/13 06:06:26;;;;;;;1.52;1.10;;;;;;;8.80;81.84;99075.53;5100630;28;20042;-81
2022/05/13 06:08:56;;;;;;;1.20;1.10;;;;;;;8.80;81.90;99078.28;5083850;28;20449;-81
2022/05/13 06:11:25;;;;;;;2.47;1.15;;;;;;;8.88;81.37;99083.03;5095162;28;20490;-79
2022/05/13 06:13:53;;;;;;;0.90;0.90;;;;;;;8.90;81.45;99091.75;5096243;28;20074;-77
2022/05/13 06:16:20;;;;;;;1.15;0.80;;;;;;;8.88;81.70;99096.72;5105588;27;20043;-79
2022/05/13 06:18:46;;;;;;;1.40;1.27;;;;;;;8.87;80.86;99095.09;5106573;27;20505;-80
2022/05/13 06:21:12;;;;;;;1.77;1.15;;;;;;;8.85;80.74;99092.66;5127691;27;20042;-80
2022/05/13 06:23:37;;;;;;;2.88;1.13;;;;;;;8.86;80.45;99091.56;5111407;27;20126;-79
2022/05/13 06:26:03;;;;;;;1.10;1.00;;;;;;;8.86;80.42;99101.69;5099291;28;20122;-78
2022/05/13 06:28:28;;;;;;;0.70;0.70;;;;;;;8.86;80.22;99098.94;5100964;28;20063;-79
2022/05/13 06:30:55;;;;;;;1.45;1.10;;;;;;;8.81;80.45;99104.50;5109537;27;20031;-79
2022/05/13 06:33:21;;;;;;;2.17;0.90;;;;;;;8.78;80.37;99095.00;5101575;28;20044;-79
2022/05/13 06:35:46;;;;;;;2.78;0.90;;;;;;;8.82;80.81;99104.19;5102125;27;20031;-82
2022/05/13 06:38:20;;;;;;;0.80;0.80;;;;;;;8.85;80.43;99098.13;5111603;28;20038;-77
2022/05/13 06:40:50;;;;;;;0.90;0.90;;;;;;;8.94;80.44;99092.72;5093512;28;20039;-78
2022/05/13 06:43:16;;;;;;;3.65;1.00;;;;;;;8.93;80.01;99093.84;5102756;28;20502;-77
2022/05/13 06:45:42;;;;;;;2.17;1.10;;;;;;;8.89;80.72;99104.59;5099184;28;20047;-78
2022/05/13 06:48:08;;;;;;;2.85;0.95;;;;;;;9.04;80.29;99103.47;5099883;28;20055;-77
2022/05/13 06:50:33;;;;;;;2.75;1.35;;;;;;;9.16;80.24;99120.13;5110838;28;20035;-78
2022/05/13 06:52:59;;;;;;;1.02;0.80;;;;;;;9.11;80.52;99117.50;5093526;28;20073;-75
2022/05/13 06:55:25;;;;;;;1.20;0.82;;;;;;;9.13;80.49;99112.53;5110579;28;20047;-75
2022/05/13 06:57:51;;;;;;;1.33;1.05;;;;;;;9.09;79.98;99117.03;5110565;28;20039;-78
2022/05/13 07:00:16;;;;;;;1.10;1.00;;;;;;;9.10;80.50;99123.31;5111281;28;20112;-78
2022/05/13 07:02:42;;;;;;;1.45;1.13;;;;;;;9.10;80.06;99126.03;5112162;28;20046;-77
2022/05/13 07:05:10;;;;;;;1.77;1.38;;;;;;;9.12;79.87;99134.75;5107301;28;20051;-77
2022/05/13 07:07:36;;;;;;;3.20;1.33;;;;;;;9.10;80.52;99136.97;5110468;28;20043;-77
2022/05/13 07:10:02;;;;;;;2.72;0.98;;;;;;;9.11;80.23;99135.88;5111396;28;20038;-77
2022/05/13 07:12:29;;;;;;;1.77;1.10;;;;;;;9.13;80.44;99139.09;5104172;28;20048;-77
2022/05/13 07:14:54;;;;;;;1.10;1.00;;;;;;;9.15;80.06;99137.66;5090314;28;20518;-76
2022/05/13 07:17:21;;;;;;;1.95;1.27;;;;;;;9.16;80.07;99133.81;5089878;28;20054;-76
2022/05/13 07:19:47;;;;;;;1.45;1.30;;;;;;;9.24;80.01;99135.03;5091188;28;20036;-77
2022/05/13 07:22:13;;;;;;;1.17;1.08;;;;;;;9.38;80.09;99140.47;5073134;28;20517;-77
2022/05/13 07:24:38;;;;;;;3.20;1.20;;;;;;;9.41;80.31;99140.63;5091431;28;20047;-76
2022/05/13 07:27:05;;;;;;;2.13;1.10;;;;;;;9.32;80.14;99145.22;5091133;28;20047;-76
2022/05/13 07:29:31;;;;;;;4.32;1.40;;;;;;;9.26;80.28;99144.53;5094512;28;20109;-76
2022/05/13 07:31:56;;;;;;;1.17;1.05;;;;;;;9.22;80.36;99140.81;5076179;28;20080;-77
2022/05/13 07:34:22;;;;;;;2.08;1.10;;;;;;;9.22;80.58;99145.47;5090949;28;20134;-76
2022/05/13 07:36:53;;;;;;;1.63;1.15;;;;;;;9.26;80.36;99152.75;5089723;28;20579;-77
2022/05/13 07:42:09;;;;;;;3.97;1.08;;;;;;;9.33;80.78;99147.66;5074827;28;20530;-77
2022/05/13 07:44:35;;;;;;;3.85;1.10;;;;;;;9.42;80.03;99142.25;5093244;28;20073;-78
2022/05/13 07:47:02;;;;;;;0.90;0.90;;;;;;;9.48;79.62;99156.63;5092109;28;20075;-77
2022/05/13 07:49:27;;;;;;;1.95;1.52;;;;;;;9.56;80.15;99162.19;5089749;28;20047;-77
2022/05/13 07:51:53;;;;;;;3.10;1.25;;;;;;;9.59;79.48;99160.75;5091088;28;20032;-77
2022/05/13 07:54:18;;;;;;;1.77;1.15;;;;;;;9.68;79.68;99172.56;5089714;28;20088;-77
2022/05/13 07:56:44;;;;;;;3.30;1.30;;;;;;;9.73;79.02;99180.69;5091052;28;20502;-77
2022/05/13 07:59:10;;;;;;;1.58;1.15;;;;;;;9.71;78.81;99182.88;5091400;28;20039;-77
2022/05/13 08:01:36;;;;;;;1.00;0.90;;;;;;;9.72;78.29;99189.19;5090586;28;20417;-75
2022/05/13 08:04:02;;;;;;;1.25;1.13;;;;;;;9.74;78.79;99187.78;5090941;28;20054;-77
2022/05/13 08:06:27;;;;;;;1.30;1.20;;;;;;;9.72;78.83;99195.50;5090562;28;20108;-77
2022/05/13 08:08:58;;;;;;;1.30;1.10;;;;;;;9.70;78.74;99203.19;5090728;28;20064;-76
2022/05/13 08:11:30;;;;;;;1.27;1.13;;;;;;;9.67;78.60;99199.16;5093850;28;20028;-76
2022/05/13 08:13:56;;;;;;;1.65;0.95;;;;;;;9.64;78.57;99207.19;5114834;28;20066;-77
2022/05/13 08:16:26;;;;;;;1.55;1.00;;;;;;;9.62;78.27;99199.28;5096053;28;20078;-77
2022/05/13 08:18:55;;;;;;;3.05;1.00;;;;;;;9.60;78.17;99208.91;5094370;28;20131;-75
2022/05/13 08:21:21;;;;;;;;;;;;;;;9.62;77.94;99207.50;5093681;28;20032;-75
2022/05/13 08:23:47;;;;;;;1.08;0.98;;;;;;;9.71;77.84;99213.03;5094457;28;20314;-75
2022/05/13 08:26:12;;;;;;;1.20;1.10;;;;;;;9.80;77.89;99200.22;5101129;28;20031;-76
2022/05/13 08:28:39;;;;;;;1.77;1.48;;;;;;;9.81;78.00;99209.25;5111489;28;20148;-75
2022/05/13 08:31:05;;;;;;;1.30;1.20;;;;;;;9.89;77.36;99214.81;5113844;28;20043;-76
2022/05/13 08:33:31;;;;;;;1.77;1.20;;;;;;;10.01;77.08;99213.41;5097146;28;20430;-75
2022/05/13 08:35:59;;;;;;;1.20;1.10;;;;;;;10.16;77.09;99208.34;5094439;28;20040;-76
2022/05/13 08:38:27;;;;;;;4.03;1.02;;;;;;;10.29;76.87;99209.44;5093943;28;20101;-75
2022/05/13 08:41:05;;;;;;;1.52;1.10;;;;;;;10.41;76.39;99212.41;5093078;28;20043;-77
2022/05/13 08:43:34;;;;;;;1.85;1.20;;;;;;;10.47;76.08;99208.41;5092825;28;20036;-75
2022/05/13 08:46:22;;;;;;;1.20;1.10;;;;;;;10.61;75.10;99215.72;5094106;28;20047;-74
2022/05/13 08:48:51;;;;;;;3.28;1.23;;;;;;;10.77;75.00;99219.69;5088085;28;20048;-75
2022/05/13 08:51:39;;;;;;;1.25;1.15;;;;;;;11.07;73.76;99218.78;5097057;28;20467;-75
2022/05/13 08:54:16;;;;;;;3.03;1.30;;;;;;;11.25;73.48;99210.59;5106600;28;20039;-75
2022/05/13 08:56:50;;;;;;;1.63;1.10;;;;;;;11.62;71.98;99215.47;5114134;28;20452;-77
2022/05/13 08:59:16;;;;;;;1.83;1.20;;;;;;;11.93;71.94;99206.28;5095634;28;20550;-76
2022/05/13 09:02:03;;;;;;;1.58;1.27;;;;;;;11.99;70.12;99205.81;5095258;28;20040;-76
2022/05/13 09:04:51;;;;;;;1.10;1.00;;;;;;;12.11;70.08;99216.13;5090849;28;20040;-75
2022/05/13 09:07:20;;;;;;;1.20;1.10;;;;;;;12.14;69.82;99214.66;5093800;28;20036;-76
2022/05/13 09:09:51;;;;;;;2.70;1.20;;;;;;;12.17;69.43;99212.09;5092958;28;20071;-74
2022/05/13 09:12:22;;;;;;;1.90;1.48;;;;;;;12.22;69.00;99209.16;5110724;27;20035;-74
2022/05/13 09:15:07;;;;;;;2.97;1.08;;;;;;;12.18;69.22;99221.13;5111117;28;20039;-74
2022/05/13 09:17:45;;;;;;;1.20;1.20;;;;;;;12.27;69.01;99219.97;5096793;28;20028;-73
2022/05/13 09:20:14;;;;;;;1.20;1.02;;;;;;;12.46;68.37;99216.03;5093109;28;20077;-76
2022/05/13 09:22:44;;;;;;;;;;;;;;;12.52;67.26;99217.50;5092253;28;20031;-75
2022/05/13 09:25:17;;;;;;;1.10;1.00;;;;;;;12.46;67.08;99216.84;5096246;28;19919;-73
2022/05/13 09:27:56;;;;;;;1.02;0.98;;;;;;;12.31;66.97;99233.88;5091798;28;20426;-74
2022/05/13 09:30:28;;;;;;;2.05;1.02;;;;;;;12.31;66.84;99229.19;5101146;27;20079;-75
2022/05/13 09:32:54;;;;;;;3.00;0.95;;;;;;;12.35;67.82;99240.34;5092111;28;20028;-75
2022/05/13 09:35:50;;;;;;;1.65;1.30;;;;;;;12.28;67.55;99227.09;5099371;28;20092;-74
2022/05/13 09:38:21;;;;;;;1.90;1.02;;;;;;;12.21;66.93;99239.72;5087831;27;20043;-76
2022/05/13 09:41:06;;;;;;;1.20;1.10;;;;;;;12.14;67.35;99253.97;5098254;28;20054;-74
2022/05/13 09:43:33;;;;;;;1.17;1.08;;;;;;;12.10;67.97;99257.69;5107217;27;20043;-74
2022/05/13 09:46:20;;;;;;;3.60;1.25;;;;;;;12.04;67.41;99257.06;5113364;28;20043;-75
2022/05/13 09:48:59;;;;;;;4.25;1.10;;;;;;;11.81;67.84;99255.63;5100459;28;20036;-75
2022/05/13 09:51:30;;;;;;;0.88;0.88;;;;;;;11.54;68.39;99265.72;5101744;28;20050;-75
2022/05/13 09:54:08;;;;;;;1.85;1.40;;;;;;;11.29;68.71;99259.06;5106277;28;20032;-74
2022/05/13 09:56:43;;;;;;;1.30;1.20;;;;;;;11.10;69.22;99270.28;5095850;28;20068;-74
2022/05/13 09:59:22;;;;;;;2.28;1.20;;;;;;;11.00;70.05;99273.34;5100339;28;20172;-76
2022/05/13 10:01:48;;;;;;;2.20;1.40;;;;;;;10.83;70.27;99265.84;5106709;28;20554;-75
2022/05/13 10:04:24;;;;;;;2.15;1.30;;;;;;;10.78;70.99;99276.97;5102050;28;20035;-76
2022/05/13 10:07:02;;;;;;;1.67;1.40;;;;;;;10.79;70.34;99278.59;5100316;28;20031;-75
2022/05/13 10:15:36;;;;;;;2.33;1.58;;;;;;;10.91;70.80;99279.91;5108793;27;20042;-76
2022/05/13 10:18:18;;;;;;;2.28;1.10;;;;;;;11.04;71.12;99273.50;5116883;27;20075;-76
2022/05/13 10:20:44;;;;;;;1.27;1.17;;;;;;;11.12;70.87;99276.31;5106309;28;20089;-76
2022/05/13 10:23:18;;;;;;;3.13;1.27;;;;;;;11.18;69.99;99280.50;5095842;28;20140;-76
2022/05/13 10:25:52;;;;;;;2.35;1.08;;;;;;;11.28;70.07;99273.09;5111628;27;20035;-74
2022/05/13 10:28:19;;;;;;;2.60;1.48;;;;;;;11.41;70.06;99281.22;5111007;27;20047;-75
2022/05/13 10:30:49;;;;;;;2.55;1.10;;;;;;;11.51;69.11;99298.53;5118487;27;20445;-75
2022/05/13 10:33:23;;;;;;;4.32;1.10;;;;;;;11.54;69.27;99303.38;5110460;28;20043;-75
2022/05/13 10:35:53;;;;;;;2.38;1.45;;;;;;;11.57;68.68;99297.25;5110964;28;20046;-76
2022/05/13 10:38:32;;;;;;;1.90;1.15;;;;;;;11.62;69.41;99300.63;5110383;28;20039;-76
2022/05/13 10:41:20;;;;;;;2.47;1.20;;;;;;;11.69;68.20;99297.44;5111261;27;20571;-76
2022/05/13 10:43:59;;;;;;;1.40;1.10;;;;;;;11.73;68.87;99298.41;5080286;28;20066;-75
2022/05/13 10:46:32;;;;;;;1.60;1.48;;;;;;;11.77;68.29;99307.63;5092816;28;20036;-75
2022/05/13 10:48:58;;;;;;;2.17;1.65;;;;;;;11.86;68.49;99302.19;5097119;28;20043;-75
2022/05/13 10:51:38;;;;;;;3.70;1.20;;;;;;;11.88;67.52;99319.16;5100005;28;20039;-75
2022/05/13 10:54:22;;;;;;;3.47;1.33;;;;;;;11.76;67.84;99306.81;5099784;28;20109;-75
2022/05/13 10:56:53;;;;;;;1.23;0.93;;;;;;;11.67;67.83;99318.94;5103563;28;20069;-75
2022/05/13 10:59:36;;;;;;;1.20;1.10;;;;;;;11.65;68.14;99321.19;5104756;27;20031;-76
2022/05/13 11:02:27;;;;;;;1.55;1.10;;;;;;;11.67;68.14;99327.97;5091277;28;20109;-76
2022/05/13 11:05:21;;;;;;;1.30;1.20;;;;;;;11.65;68.47;99335.75;5090177;28;20047;-76
2022/05/13 11:08:19;;;;;;;2.00;1.35;;;;;;;11.66;68.20;99342.84;5094459;28;20418;-76
2022/05/13 11:11:22;;;;;;;1.45;0.93;;;;;;;11.67;68.25;99347.22;5069114;28;20048;-75
2022/05/13 11:14:09;;;;;;;3.58;1.38;;;;;;;11.58;68.25;99342.81;5094646;28;20036;-73
2022/05/13 11:16:47;;;;;;;1.73;1.30;;;;;;;11.58;68.10;99351.88;5104785;28;20122;-73
2022/05/13 11:19:24;;;;;;;1.77;1.23;;;;;;;11.56;68.36;99351.38;5111843;28;20035;-73
2022/05/13 11:21:59;;;;;;;1.42;1.20;;;;;;;11.56;68.60;99337.66;5090340;28;20079;-74
2022/05/13 11:28:12;;;;;;;2.60;1.20;;;;;;;11.69;68.43;99353.19;5107887;28;20466;-75
2022/05/13 11:30:49;;;;;;;3.28;1.10;;;;;;;11.80;67.94;99350.16;5072564;28;20044;-75
2022/05/13 11:33:52;;;;;;;0.98;0.90;;;;;;;11.86;67.66;99341.47;5095086;28;20105;-74
2022/05/13 11:36:38;;;;;;;2.17;1.40;;;;;;;11.95;66.75;99346.97;5099179;28;20044;-73
2022/05/13 11:40:11;;;;;;;4.50;1.20;;;;;;;11.95;67.22;99346.97;5078318;28;20044;-76
2022/05/13 11:45:56;;;;;;;1.30;0.90;;;;;;;12.05;67.03;99352.97;5103985;28;20043;-74
2022/05/13 11:48:21;;;;;;;2.08;1.05;;;;;;;12.11;66.96;99361.03;5095491;28;20036;-74
2022/05/13 11:50:47;;;;;;;1.58;1.00;;;;;;;12.12;66.21;99357.97;5095458;28;20405;-75
2022/05/13 11:53:42;;;;;;;1.10;1.00;;;;;;;12.14;66.82;99365.91;5094561;28;20036;-74
2022/05/13 11:56:29;;;;;;;1.10;1.00;;;;;;;12.14;66.05;99352.94;5095355;28;20044;-74
2022/05/13 11:59:11;;;;;;;2.05;1.20;;;;;;;12.21;65.71;99358.81;5094015;28;20051;-75
2022/05/13 12:01:46;;;;;;;1.80;0.77;;;;;;;12.25;65.26;99362.50;5095033;28;20038;-75
2022/05/13 12:04:11;;;;;;;3.28;1.17;;;;;;;12.26;65.73;99363.31;5096100;28;20064;-74
2022/05/13 12:06:52;;;;;;;1.95;1.25;;;;;;;12.26;65.37;99366.06;5103742;28;20086;-74
2022/05/13 12:09:26;;;;;;;1.48;1.23;;;;;;;12.26;64.79;99355.88;5100250;28;20044;-75
2022/05/13 12:12:21;;;;;;;1.10;1.00;;;;;;;12.26;65.45;99369.63;5110251;28;20084;-74
2022/05/13 12:14:53;;;;;;;3.42;1.20;;;;;;;12.29;64.99;99359.91;5094953;28;20044;-74
2022/05/13 12:17:41;;;;;;;1.35;1.10;;;;;;;12.28;64.79;99370.13;5094418;28;20052;-74
2022/05/13 12:20:26;;;;;;;1.70;1.08;;;;;;;12.26;64.83;99377.06;5098410;28;20122;-73
2022/05/13 12:23:28;;;;;;;1.90;0.98;;;;;;;12.26;65.00;99371.56;5105382;28;20039;-74
2022/05/13 12:26:02;;;;;;;1.02;0.82;;;;;;;12.26;64.23;99366.88;5099130;28;20558;-74
2022/05/13 12:28:31;;;;;;;0.63;0.63;;;;;;;12.24;63.96;99371.91;5092485;28;20092;-74
2022/05/13 12:30:57;;;;;;;2.15;1.08;;;;;;;12.25;63.75;99373.50;5097066;28;20441;-74
2022/05/13 12:33:28;;;;;;;2.00;0.90;;;;;;;12.24;64.31;99369.16;5092896;28;20042;-74